sensor_id;sensor_type;location;lat;lon;timestamp;P1;durP1;ratioP1;P2;durP2;ratioP2
26478;SDS011;14163;-26.142;27.992;2023-05-10T06:44:37;28.80;;;20.10;;
26478;SDS011;14163;-26.142;27.992;2023-05-10T06:47:07;29.10;;;18.47;;
26478;SDS011;14163;-26.142;27.992;2023-05-10T06:49:36;22.87;;;15.40;;
26478;SDS011;14163;-26.142;27.992;2023-05-10T06:52:05;19.63;;;16.00;;
26478;SDS011;14163;-26.142;27.992;2023-05-10T06:54:35;22.80;;;14.87;;
26478;SDS011;14163;-26.142;27.992;2023-05-10T06:57:04;17.40;;;13.77;;
26478;SDS011;14163;-26.142;27.992;2023-05-10T06:59:33;20.17;;;15.97;;
26478;SDS011;14163;-26.142;27.992;2023-05-10T07:02:05;21.47;;;16.27;;
26478;SDS011;14163;-26.142;27.992;2023-05-10T07:04:34;20.50;;;15.50;;
26478;SDS011;14163;-26.142;27.992;2023-05-10T07:07:03;21.67;;;14.57;;
26478;SDS011;14163;-26.142;27.992;2023-05-10T07:09:32;21.90;;;16.43;;
26478;SDS011;14163;-26.142;27.992;2023-05-10T07:12:02;27.53;;;17.03;;
26478;SDS011;14163;-26.142;27.992;2023-05-10T07:14:31;21.70;;;16.53;;
26478;SDS011;14163;-26.142;27.992;2023-05-10T07:17:01;20.83;;;15.50;;
26478;SDS011;14163;-26.142;27.992;2023-05-10T07:19:32;23.07;;;16.20;;
26478;SDS011;14163;-26.142;27.992;2023-05-10T07:22:01;19.60;;;15.90;;
26478;SDS011;14163;-26.142;27.992;2023-05-10T07:24:31;25.10;;;15.93;;
26478;SDS011;14163;-26.142;27.992;2023-05-10T07:27:00;22.37;;;15.63;;
26478;SDS011;14163;-26.142;27.992;2023-05-10T07:29:29;20.80;;;14.07;;
26478;SDS011;14163;-26.142;27.992;2023-05-10T07:31:59;19.07;;;15.20;;
26478;SDS011;14163;-26.142;27.992;2023-05-10T07:34:28;21.43;;;14.30;;
26478;SDS011;14163;-26.142;27.992;2023-05-10T07:36:59;22.43;;;14.27;;
26478;SDS011;14163;-26.142;27.992;2023-05-10T07:39:29;17.40;;;12.90;;
26478;SDS011;14163;-26.142;27.992;2023-05-10T07:41:58;17.13;;;12.83;;
26478;SDS011;14163;-26.142;27.992;2023-05-10T07:44:28;20.57;;;12.97;;
26478;SDS011;14163;-26.142;27.992;2023-05-10T07:46:57;17.70;;;12.13;;
26478;SDS011;14163;-26.142;27.992;2023-05-10T07:49:27;13.73;;;11.20;;
26478;SDS011;14163;-26.142;27.992;2023-05-10T07:51:58;10.70;;;9.60;;
26478;SDS011;14163;-26.142;27.992;2023-05-10T07:54:27;13.30;;;9.67;;
26478;SDS011;14163;-26.142;27.992;2023-05-10T07:56:56;6.30;;;5.70;;
26478;SDS011;14163;-26.142;27.992;2023-05-10T07:59:25;5.07;;;4.67;;
26478;SDS011;14163;-26.142;27.992;2023-05-10T08:01:54;7.23;;;5.50;;
26478;SDS011;14163;-26.142;27.992;2023-05-10T08:04:24;7.37;;;5.67;;
26478;SDS011;14163;-26.142;27.992;2023-05-10T08:06:53;8.60;;;7.10;;
26478;SDS011;14163;-26.142;27.992;2023-05-10T08:09:24;16.53;;;8.53;;
26478;SDS011;14163;-26.142;27.992;2023-05-10T08:11:53;12.27;;;8.90;;
26478;SDS011;14163;-26.142;27.992;2023-05-10T08:14:22;6.60;;;5.93;;
26478;SDS011;14163;-26.142;27.992;2023-05-10T08:16:52;6.17;;;5.57;;
26478;SDS011;14163;-26.142;27.992;2023-05-10T08:19:21;10.60;;;6.23;;
26478;SDS011;14163;-26.142;27.992;2023-05-10T08:21:50;9.27;;;5.77;;
26478;SDS011;14163;-26.142;27.992;2023-05-10T08:24:21;8.33;;;6.90;;
26478;SDS011;14163;-26.142;27.992;2023-05-10T08:26:52;7.93;;;5.40;;
26478;SDS011;14163;-26.142;27.992;2023-05-10T08:29:21;5.90;;;4.73;;
26478;SDS011;14163;-26.142;27.992;2023-05-10T08:31:50;8.40;;;5.17;;
26478;SDS011;14163;-26.142;27.992;2023-05-10T08:34:19;9.20;;;5.97;;
26478;SDS011;14163;-26.142;27.992;2023-05-10T08:36:49;9.77;;;6.90;;
26478;SDS011;14163;-26.142;27.992;2023-05-10T08:39:18;7.00;;;6.20;;
26478;SDS011;14163;-26.142;27.992;2023-05-10T08:41:47;8.13;;;6.80;;
26478;SDS011;14163;-26.142;27.992;2023-05-10T08:44:20;8.13;;;6.30;;
26478;SDS011;14163;-26.142;27.992;2023-05-10T08:46:50;13.57;;;7.90;;
26478;SDS011;14163;-26.142;27.992;2023-05-10T08:49:21;9.10;;;8.20;;
26478;SDS011;14163;-26.142;27.992;2023-05-10T08:51:54;11.33;;;8.20;;
26478;SDS011;14163;-26.142;27.992;2023-05-10T08:54:25;14.53;;;8.97;;
26478;SDS011;14163;-26.142;27.992;2023-05-10T08:56:54;15.73;;;8.80;;
26478;SDS011;14163;-26.142;27.992;2023-05-10T08:59:26;14.50;;;10.10;;
26478;SDS011;14163;-26.142;27.992;2023-05-10T09:01:56;13.70;;;9.67;;
26478;SDS011;14163;-26.142;27.992;2023-05-10T09:04:26;12.37;;;8.03;;
26478;SDS011;14163;-26.142;27.992;2023-05-10T09:06:57;10.70;;;8.10;;
26478;SDS011;14163;-26.142;27.992;2023-05-10T09:09:26;9.03;;;7.80;;
26478;SDS011;14163;-26.142;27.992;2023-05-10T09:11:56;8.80;;;7.87;;
26478;SDS011;14163;-26.142;27.992;2023-05-10T09:14:27;10.20;;;9.10;;
26478;SDS011;14163;-26.142;27.992;2023-05-10T09:16:57;11.60;;;9.33;;
26478;SDS011;14163;-26.142;27.992;2023-05-10T09:19:27;14.20;;;9.60;;
26478;SDS011;14163;-26.142;27.992;2023-05-10T09:21:57;12.57;;;10.80;;
26478;SDS011;14163;-26.142;27.992;2023-05-10T09:24:28;18.00;;;13.17;;
26478;SDS011;14163;-26.142;27.992;2023-05-10T09:26:58;23.43;;;14.37;;
26478;SDS011;14163;-26.142;27.992;2023-05-10T09:29:30;13.77;;;12.10;;
26478;SDS011;14163;-26.142;27.992;2023-05-10T09:32:07;16.20;;;12.07;;
26478;SDS011;14163;-26.142;27.992;2023-05-10T09:34:37;14.30;;;10.90;;
26478;SDS011;14163;-26.142;27.992;2023-05-10T09:37:08;14.20;;;10.30;;
26478;SDS011;14163;-26.142;27.992;2023-05-10T09:39:37;11.17;;;9.93;;
26478;SDS011;14163;-26.142;27.992;2023-05-10T09:42:07;16.67;;;10.10;;
26478;SDS011;14163;-26.142;27.992;2023-05-10T09:44:39;11.17;;;10.07;;
26478;SDS011;14163;-26.142;27.992;2023-05-10T09:47:09;9.67;;;8.17;;
26478;SDS011;14163;-26.142;27.992;2023-05-10T09:49:38;9.53;;;7.43;;
26478;SDS011;14163;-26.142;27.992;2023-05-10T09:52:09;13.27;;;7.80;;
26478;SDS011;14163;-26.142;27.992;2023-05-10T09:54:38;13.83;;;8.30;;
26478;SDS011;14163;-26.142;27.992;2023-05-10T09:57:20;11.30;;;8.20;;
26478;SDS011;14163;-26.142;27.992;2023-05-10T09:59:52;8.40;;;6.70;;
26478;SDS011;14163;-26.142;27.992;2023-05-10T10:02:28;13.50;;;6.40;;
26478;SDS011;14163;-26.142;27.992;2023-05-10T10:04:57;6.17;;;5.67;;
26478;SDS011;14163;-26.142;27.992;2023-05-10T10:07:28;8.47;;;6.80;;
26478;SDS011;14163;-26.142;27.992;2023-05-10T10:09:58;6.00;;;5.50;;
26478;SDS011;14163;-26.142;27.992;2023-05-10T10:12:28;5.37;;;4.77;;
26478;SDS011;14163;-26.142;27.992;2023-05-10T10:14:59;10.17;;;5.60;;
26478;SDS011;14163;-26.142;27.992;2023-05-10T10:17:28;7.80;;;5.37;;
26478;SDS011;14163;-26.142;27.992;2023-05-10T10:19:59;6.70;;;5.63;;
26478;SDS011;14163;-26.142;27.992;2023-05-10T10:22:30;7.97;;;5.50;;
26478;SDS011;14163;-26.142;27.992;2023-05-10T10:24:59;10.50;;;7.40;;
26478;SDS011;14163;-26.142;27.992;2023-05-10T10:27:31;6.93;;;6.27;;
26478;SDS011;14163;-26.142;27.992;2023-05-10T10:30:13;7.80;;;7.10;;
26478;SDS011;14163;-26.142;27.992;2023-05-10T10:33:01;8.00;;;6.60;;
26478;SDS011;14163;-26.142;27.992;2023-05-10T10:35:52;8.87;;;7.20;;
26478;SDS011;14163;-26.142;27.992;2023-05-10T10:38:23;6.63;;;6.03;;
26478;SDS011;14163;-26.142;27.992;2023-05-10T10:41:01;8.33;;;6.30;;
26478;SDS011;14163;-26.142;27.992;2023-05-10T10:43:35;7.10;;;6.40;;
26478;SDS011;14163;-26.142;27.992;2023-05-10T10:46:15;7.43;;;6.80;;
26478;SDS011;14163;-26.142;27.992;2023-05-10T10:48:49;7.43;;;6.70;;
26478;SDS011;14163;-26.142;27.992;2023-05-10T10:51:36;7.57;;;6.83;;
26478;SDS011;14163;-26.142;27.992;2023-05-10T10:54:09;8.40;;;7.70;;
26478;SDS011;14163;-26.142;27.992;2023-05-10T10:56:39;10.20;;;7.90;;
26478;SDS011;14163;-26.142;27.992;2023-05-10T10:59:08;10.13;;;7.90;;
26478;SDS011;14163;-26.142;27.992;2023-05-10T11:01:39;11.03;;;9.83;;
26478;SDS011;14163;-26.142;27.992;2023-05-10T11:04:19;13.23;;;9.93;;
26478;SDS011;14163;-26.142;27.992;2023-05-10T11:06:48;11.87;;;10.63;;
26478;SDS011;14163;-26.142;27.992;2023-05-10T11:09:17;12.67;;;11.20;;
26478;SDS011;14163;-26.142;27.992;2023-05-10T11:11:50;10.30;;;9.30;;
26478;SDS011;14163;-26.142;27.992;2023-05-10T11:14:21;11.80;;;10.60;;
26478;SDS011;14163;-26.142;27.992;2023-05-10T11:16:52;12.53;;;11.33;;
26478;SDS011;14163;-26.142;27.992;2023-05-10T11:19:22;11.63;;;10.20;;
26478;SDS011;14163;-26.142;27.992;2023-05-10T11:24:40;12.07;;;9.87;;
26478;SDS011;14163;-26.142;27.992;2023-05-10T11:27:25;10.83;;;8.53;;
26478;SDS011;14163;-26.142;27.992;2023-05-10T11:29:54;10.40;;;9.17;;
26478;SDS011;14163;-26.142;27.992;2023-05-10T11:32:25;9.97;;;9.00;;
26478;SDS011;14163;-26.142;27.992;2023-05-10T11:34:55;9.13;;;8.23;;
26478;SDS011;14163;-26.142;27.992;2023-05-10T11:37:27;9.57;;;7.97;;
26478;SDS011;14163;-26.142;27.992;2023-05-10T11:40:00;14.17;;;9.07;;
26478;SDS011;14163;-26.142;27.992;2023-05-10T11:42:29;10.03;;;8.30;;
26478;SDS011;14163;-26.142;27.992;2023-05-10T11:45:00;10.80;;;7.37;;
26478;SDS011;14163;-26.142;27.992;2023-05-10T11:47:31;7.17;;;6.50;;
26478;SDS011;14163;-26.142;27.992;2023-05-10T11:50:01;7.63;;;6.93;;
26478;SDS011;14163;-26.142;27.992;2023-05-10T11:52:35;7.70;;;6.90;;
26478;SDS011;14163;-26.142;27.992;2023-05-10T11:55:05;7.80;;;7.20;;
26478;SDS011;14163;-26.142;27.992;2023-05-10T11:57:35;6.10;;;5.70;;
26478;SDS011;14163;-26.142;27.992;2023-05-10T12:00:07;6.90;;;6.20;;
26478;SDS011;14163;-26.142;27.992;2023-05-10T12:02:38;7.33;;;6.67;;
26478;SDS011;14163;-26.142;27.992;2023-05-10T12:05:08;12.20;;;7.40;;
26478;SDS011;14163;-26.142;27.992;2023-05-10T12:07:38;7.77;;;7.00;;
26478;SDS011;14163;-26.142;27.992;2023-05-10T12:10:07;7.67;;;7.07;;
26478;SDS011;14163;-26.142;27.992;2023-05-10T12:12:40;9.17;;;8.27;;
26478;SDS011;14163;-26.142;27.992;2023-05-10T12:15:16;8.07;;;7.37;;
26478;SDS011;14163;-26.142;27.992;2023-05-10T12:17:49;10.43;;;7.70;;
26478;SDS011;14163;-26.142;27.992;2023-05-10T12:20:19;7.63;;;6.70;;
26478;SDS011;14163;-26.142;27.992;2023-05-10T12:22:50;6.70;;;6.10;;
26478;SDS011;14163;-26.142;27.992;2023-05-10T12:25:20;6.90;;;6.20;;
26478;SDS011;14163;-26.142;27.992;2023-05-10T12:27:51;5.97;;;5.50;;
26478;SDS011;14163;-26.142;27.992;2023-05-10T12:30:21;9.30;;;6.30;;
26478;SDS011;14163;-26.142;27.992;2023-05-10T12:32:53;9.87;;;6.00;;
26478;SDS011;14163;-26.142;27.992;2023-05-10T12:35:29;6.80;;;5.97;;
26478;SDS011;14163;-26.142;27.992;2023-05-10T12:37:59;8.20;;;5.57;;
26478;SDS011;14163;-26.142;27.992;2023-05-10T12:40:28;5.63;;;4.80;;
26478;SDS011;14163;-26.142;27.992;2023-05-10T12:42:57;5.20;;;4.73;;
26478;SDS011;14163;-26.142;27.992;2023-05-10T12:45:26;5.10;;;4.70;;
26478;SDS011;14163;-26.142;27.992;2023-05-10T12:47:58;6.17;;;4.80;;
26478;SDS011;14163;-26.142;27.992;2023-05-10T12:50:28;4.97;;;4.60;;
26478;SDS011;14163;-26.142;27.992;2023-05-10T12:52:59;4.60;;;4.20;;
26478;SDS011;14163;-26.142;27.992;2023-05-10T12:55:28;5.10;;;4.70;;
26478;SDS011;14163;-26.142;27.992;2023-05-10T12:57:58;4.73;;;4.33;;
26478;SDS011;14163;-26.142;27.992;2023-05-10T13:00:27;7.40;;;5.47;;
26478;SDS011;14163;-26.142;27.992;2023-05-10T13:02:58;4.73;;;4.40;;
26478;SDS011;14163;-26.142;27.992;2023-05-10T13:05:27;5.13;;;4.73;;
26478;SDS011;14163;-26.142;27.992;2023-05-10T13:07:57;5.30;;;4.90;;
26478;SDS011;14163;-26.142;27.992;2023-05-10T13:10:26;5.17;;;4.77;;
26478;SDS011;14163;-26.142;27.992;2023-05-10T13:12:57;7.67;;;5.13;;
26478;SDS011;14163;-26.142;27.992;2023-05-10T13:15:26;5.50;;;5.10;;
26478;SDS011;14163;-26.142;27.992;2023-05-10T13:17:56;5.87;;;5.37;;
26478;SDS011;14163;-26.142;27.992;2023-05-10T13:20:26;7.43;;;6.70;;
26478;SDS011;14163;-26.142;27.992;2023-05-10T13:22:56;7.20;;;6.40;;
26478;SDS011;14163;-26.142;27.992;2023-05-10T13:25:25;8.20;;;7.27;;
26478;SDS011;14163;-26.142;27.992;2023-05-10T13:27:54;11.13;;;7.23;;
26478;SDS011;14163;-26.142;27.992;2023-05-10T13:30:24;7.83;;;7.03;;
26478;SDS011;14163;-26.142;27.992;2023-05-10T13:32:54;8.63;;;6.63;;
26478;SDS011;14163;-26.142;27.992;2023-05-10T13:35:25;10.73;;;7.10;;
26478;SDS011;14163;-26.142;27.992;2023-05-10T13:37:54;7.97;;;7.27;;
26478;SDS011;14163;-26.142;27.992;2023-05-10T13:40:24;7.63;;;6.40;;
26478;SDS011;14163;-26.142;27.992;2023-05-10T13:42:53;7.80;;;6.80;;
26478;SDS011;14163;-26.142;27.992;2023-05-10T13:45:22;7.90;;;6.40;;
26478;SDS011;14163;-26.142;27.992;2023-05-10T13:47:52;8.27;;;7.47;;
26478;SDS011;14163;-26.142;27.992;2023-05-10T13:50:21;8.47;;;7.60;;
26478;SDS011;14163;-26.142;27.992;2023-05-10T13:52:52;8.97;;;8.07;;
26478;SDS011;14163;-26.142;27.992;2023-05-10T13:55:21;9.80;;;8.63;;
26478;SDS011;14163;-26.142;27.992;2023-05-10T13:57:51;10.23;;;7.73;;
26478;SDS011;14163;-26.142;27.992;2023-05-10T14:00:20;10.17;;;9.17;;
26478;SDS011;14163;-26.142;27.992;2023-05-10T14:02:49;10.53;;;9.37;;
26478;SDS011;14163;-26.142;27.992;2023-05-10T14:05:18;9.60;;;8.70;;
26478;SDS011;14163;-26.142;27.992;2023-05-10T14:07:49;10.63;;;9.73;;
26478;SDS011;14163;-26.142;27.992;2023-05-10T14:10:20;9.87;;;8.47;;
26478;SDS011;14163;-26.142;27.992;2023-05-10T14:12:49;9.27;;;8.37;;
26478;SDS011;14163;-26.142;27.992;2023-05-10T14:15:19;9.73;;;8.83;;
26478;SDS011;14163;-26.142;27.992;2023-05-10T14:17:48;8.90;;;8.10;;
26478;SDS011;14163;-26.142;27.992;2023-05-10T14:20:18;9.50;;;8.70;;
26478;SDS011;14163;-26.142;27.992;2023-05-10T14:22:47;11.10;;;8.90;;
26478;SDS011;14163;-26.142;27.992;2023-05-10T14:25:18;10.50;;;9.40;;
26478;SDS011;14163;-26.142;27.992;2023-05-10T14:27:47;9.43;;;8.63;;
26478;SDS011;14163;-26.142;27.992;2023-05-10T14:30:16;9.00;;;8.20;;
26478;SDS011;14163;-26.142;27.992;2023-05-10T14:32:46;8.83;;;8.00;;
26478;SDS011;14163;-26.142;27.992;2023-05-10T14:35:15;10.57;;;7.93;;
26478;SDS011;14163;-26.142;27.992;2023-05-10T14:37:44;9.53;;;7.33;;
26478;SDS011;14163;-26.142;27.992;2023-05-10T14:40:13;8.60;;;6.97;;
26478;SDS011;14163;-26.142;27.992;2023-05-10T14:42:45;7.50;;;6.53;;
26478;SDS011;14163;-26.142;27.992;2023-05-10T14:45:14;7.20;;;6.50;;
26478;SDS011;14163;-26.142;27.992;2023-05-10T14:47:43;7.00;;;6.30;;
26478;SDS011;14163;-26.142;27.992;2023-05-10T14:50:12;8.40;;;6.60;;
26478;SDS011;14163;-26.142;27.992;2023-05-10T14:52:42;7.90;;;7.10;;
26478;SDS011;14163;-26.142;27.992;2023-05-10T14:55:11;8.40;;;7.60;;
26478;SDS011;14163;-26.142;27.992;2023-05-10T14:57:41;9.13;;;8.23;;
26478;SDS011;14163;-26.142;27.992;2023-05-10T15:00:13;9.30;;;8.30;;
26478;SDS011;14163;-26.142;27.992;2023-05-10T15:02:45;13.20;;;10.30;;
26478;SDS011;14163;-26.142;27.992;2023-05-10T15:05:14;11.03;;;9.40;;
26478;SDS011;14163;-26.142;27.992;2023-05-10T15:07:44;12.20;;;10.10;;
26478;SDS011;14163;-26.142;27.992;2023-05-10T15:10:14;11.27;;;9.60;;
26478;SDS011;14163;-26.142;27.992;2023-05-10T15:12:45;11.87;;;10.60;;
26478;SDS011;14163;-26.142;27.992;2023-05-10T15:15:14;11.53;;;9.73;;
26478;SDS011;14163;-26.142;27.992;2023-05-10T15:17:43;9.90;;;8.90;;
26478;SDS011;14163;-26.142;27.992;2023-05-10T15:20:12;10.13;;;8.80;;
26478;SDS011;14163;-26.142;27.992;2023-05-10T15:22:41;11.20;;;10.07;;
26478;SDS011;14163;-26.142;27.992;2023-05-10T15:25:10;15.07;;;10.73;;
26478;SDS011;14163;-26.142;27.992;2023-05-10T15:27:41;13.40;;;11.60;;
26478;SDS011;14163;-26.142;27.992;2023-05-10T15:30:12;13.10;;;11.70;;
26478;SDS011;14163;-26.142;27.992;2023-05-10T15:32:54;15.40;;;13.00;;
26478;SDS011;14163;-26.142;27.992;2023-05-10T15:35:25;14.27;;;12.87;;
26478;SDS011;14163;-26.142;27.992;2023-05-10T15:37:55;23.83;;;13.93;;
26478;SDS011;14163;-26.142;27.992;2023-05-10T15:40:25;17.63;;;15.20;;
26478;SDS011;14163;-26.142;27.992;2023-05-10T15:42:54;18.47;;;15.00;;
26478;SDS011;14163;-26.142;27.992;2023-05-10T15:45:31;16.80;;;13.90;;
26478;SDS011;14163;-26.142;27.992;2023-05-10T15:50:41;17.53;;;12.90;;
26478;SDS011;14163;-26.142;27.992;2023-05-10T15:53:12;14.13;;;10.50;;
26478;SDS011;14163;-26.142;27.992;2023-05-10T15:55:42;14.83;;;11.73;;
26478;SDS011;14163;-26.142;27.992;2023-05-10T15:58:11;15.03;;;12.00;;
26478;SDS011;14163;-26.142;27.992;2023-05-10T16:00:43;16.10;;;12.10;;
26478;SDS011;14163;-26.142;27.992;2023-05-10T16:03:12;16.07;;;12.07;;
26478;SDS011;14163;-26.142;27.992;2023-05-10T16:05:42;14.90;;;12.03;;
26478;SDS011;14163;-26.142;27.992;2023-05-10T16:08:13;14.63;;;12.23;;
26478;SDS011;14163;-26.142;27.992;2023-05-10T16:10:43;11.43;;;10.13;;
26478;SDS011;14163;-26.142;27.992;2023-05-10T16:13:12;13.97;;;10.70;;
26478;SDS011;14163;-26.142;27.992;2023-05-10T16:15:43;11.40;;;9.97;;
26478;SDS011;14163;-26.142;27.992;2023-05-10T16:18:13;12.67;;;11.23;;
26478;SDS011;14163;-26.142;27.992;2023-05-10T16:20:43;11.00;;;9.90;;
26478;SDS011;14163;-26.142;27.992;2023-05-10T16:23:12;12.90;;;11.43;;
26478;SDS011;14163;-26.142;27.992;2023-05-10T16:25:41;13.77;;;11.17;;
26478;SDS011;14163;-26.142;27.992;2023-05-10T16:28:12;13.30;;;10.83;;
26478;SDS011;14163;-26.142;27.992;2023-05-10T16:30:41;12.87;;;10.20;;
26478;SDS011;14163;-26.142;27.992;2023-05-10T16:33:12;12.53;;;11.23;;
26478;SDS011;14163;-26.142;27.992;2023-05-10T16:35:41;12.37;;;10.30;;
26478;SDS011;14163;-26.142;27.992;2023-05-10T16:38:10;13.90;;;11.43;;
26478;SDS011;14163;-26.142;27.992;2023-05-10T16:40:40;12.20;;;11.00;;
26478;SDS011;14163;-26.142;27.992;2023-05-10T16:43:09;13.57;;;12.07;;
26478;SDS011;14163;-26.142;27.992;2023-05-10T16:45:38;13.67;;;12.33;;
26478;SDS011;14163;-26.142;27.992;2023-05-10T16:48:09;17.80;;;15.20;;
26478;SDS011;14163;-26.142;27.992;2023-05-10T16:50:42;20.33;;;17.63;;
26478;SDS011;14163;-26.142;27.992;2023-05-10T16:53:11;26.60;;;21.97;;
26478;SDS011;14163;-26.142;27.992;2023-05-10T16:55:40;29.33;;;23.73;;
26478;SDS011;14163;-26.142;27.992;2023-05-10T16:58:10;29.87;;;23.50;;
26478;SDS011;14163;-26.142;27.992;2023-05-10T17:00:39;28.53;;;22.93;;
26478;SDS011;14163;-26.142;27.992;2023-05-10T17:03:10;32.93;;;26.90;;
26478;SDS011;14163;-26.142;27.992;2023-05-10T17:05:39;35.03;;;26.77;;
26478;SDS011;14163;-26.142;27.992;2023-05-10T17:08:08;38.43;;;28.90;;
26478;SDS011;14163;-26.142;27.992;2023-05-10T17:10:38;39.67;;;27.53;;
26478;SDS011;14163;-26.142;27.992;2023-05-10T17:13:07;43.40;;;29.20;;
26478;SDS011;14163;-26.142;27.992;2023-05-10T17:15:37;34.93;;;26.67;;
26478;SDS011;14163;-26.142;27.992;2023-05-10T17:18:06;34.40;;;25.67;;
26478;SDS011;14163;-26.142;27.992;2023-05-10T17:20:41;31.10;;;25.37;;
26478;SDS011;14163;-26.142;27.992;2023-05-10T17:23:11;33.47;;;25.67;;
26478;SDS011;14163;-26.142;27.992;2023-05-10T17:25:41;33.40;;;25.70;;
26478;SDS011;14163;-26.142;27.992;2023-05-10T17:28:11;39.60;;;27.53;;
26478;SDS011;14163;-26.142;27.992;2023-05-10T17:30:40;38.13;;;27.67;;
26478;SDS011;14163;-26.142;27.992;2023-05-10T17:33:09;37.73;;;26.20;;
26478;SDS011;14163;-26.142;27.992;2023-05-10T17:35:43;39.13;;;28.00;;
26478;SDS011;14163;-26.142;27.992;2023-05-10T17:38:12;32.80;;;28.50;;
26478;SDS011;14163;-26.142;27.992;2023-05-10T17:40:42;35.73;;;27.63;;
26478;SDS011;14163;-26.142;27.992;2023-05-10T17:43:11;33.10;;;26.20;;
26478;SDS011;14163;-26.142;27.992;2023-05-10T17:45:41;36.97;;;25.93;;
26478;SDS011;14163;-26.142;27.992;2023-05-10T17:48:11;29.73;;;25.50;;
26478;SDS011;14163;-26.142;27.992;2023-05-10T17:50:42;31.03;;;26.20;;
26478;SDS011;14163;-26.142;27.992;2023-05-10T17:53:11;28.23;;;25.10;;
26478;SDS011;14163;-26.142;27.992;2023-05-10T17:55:40;30.00;;;24.90;;
26478;SDS011;14163;-26.142;27.992;2023-05-10T17:58:10;34.50;;;27.67;;
26478;SDS011;14163;-26.142;27.992;2023-05-10T18:00:39;34.30;;;26.13;;
26478;SDS011;14163;-26.142;27.992;2023-05-10T18:03:09;35.70;;;28.47;;
26478;SDS011;14163;-26.142;27.992;2023-05-10T18:05:39;36.00;;;29.03;;
26478;SDS011;14163;-26.142;27.992;2023-05-10T18:08:09;37.27;;;27.13;;
26478;SDS011;14163;-26.142;27.992;2023-05-10T18:10:39;38.43;;;28.40;;
26478;SDS011;14163;-26.142;27.992;2023-05-10T18:13:08;33.00;;;27.13;;
26478;SDS011;14163;-26.142;27.992;2023-05-10T18:15:37;36.83;;;27.83;;
26478;SDS011;14163;-26.142;27.992;2023-05-10T18:18:07;32.33;;;27.63;;
26478;SDS011;14163;-26.142;27.992;2023-05-10T18:20:37;32.03;;;26.20;;
26478;SDS011;14163;-26.142;27.992;2023-05-10T18:23:07;35.03;;;27.50;;
26478;SDS011;14163;-26.142;27.992;2023-05-10T18:25:38;33.23;;;25.43;;
26478;SDS011;14163;-26.142;27.992;2023-05-10T18:28:07;38.50;;;28.03;;
26478;SDS011;14163;-26.142;27.992;2023-05-10T18:30:36;32.57;;;26.43;;
26478;SDS011;14163;-26.142;27.992;2023-05-10T18:33:05;35.97;;;26.97;;
26478;SDS011;14163;-26.142;27.992;2023-05-10T18:35:36;30.93;;;26.03;;
26478;SDS011;14163;-26.142;27.992;2023-05-10T18:38:06;29.33;;;24.93;;
26478;SDS011;14163;-26.142;27.992;2023-05-10T18:40:38;32.07;;;26.53;;
26478;SDS011;14163;-26.142;27.992;2023-05-10T18:43:08;31.03;;;26.17;;
26478;SDS011;14163;-26.142;27.992;2023-05-10T18:45:37;35.57;;;27.07;;
26478;SDS011;14163;-26.142;27.992;2023-05-10T18:48:06;31.47;;;28.07;;
26478;SDS011;14163;-26.142;27.992;2023-05-10T18:50:35;34.50;;;29.10;;
26478;SDS011;14163;-26.142;27.992;2023-05-10T18:53:06;34.60;;;28.67;;
26478;SDS011;14163;-26.142;27.992;2023-05-10T18:55:37;33.93;;;28.57;;
26478;SDS011;14163;-26.142;27.992;2023-05-10T18:58:06;30.10;;;26.63;;
26478;SDS011;14163;-26.142;27.992;2023-05-10T19:00:35;31.27;;;27.83;;
26478;SDS011;14163;-26.142;27.992;2023-05-10T19:03:04;33.20;;;28.50;;
26478;SDS011;14163;-26.142;27.992;2023-05-10T19:05:34;33.57;;;28.80;;
26478;SDS011;14163;-26.142;27.992;2023-05-10T19:08:03;34.57;;;28.63;;
26478;SDS011;14163;-26.142;27.992;2023-05-10T19:10:32;38.70;;;28.67;;
26478;SDS011;14163;-26.142;27.992;2023-05-10T19:13:03;31.20;;;27.60;;
26478;SDS011;14163;-26.142;27.992;2023-05-10T19:15:32;30.33;;;26.70;;
26478;SDS011;14163;-26.142;27.992;2023-05-10T19:18:02;32.50;;;26.40;;
26478;SDS011;14163;-26.142;27.992;2023-05-10T19:20:31;29.10;;;25.93;;
26478;SDS011;14163;-26.142;27.992;2023-05-10T19:23:00;30.67;;;25.90;;
26478;SDS011;14163;-26.142;27.992;2023-05-10T19:25:30;34.30;;;27.10;;
26478;SDS011;14163;-26.142;27.992;2023-05-10T19:27:59;35.67;;;30.10;;
26478;SDS011;14163;-26.142;27.992;2023-05-10T19:30:30;37.47;;;26.90;;
26478;SDS011;14163;-26.142;27.992;2023-05-10T19:33:00;31.00;;;26.03;;
26478;SDS011;14163;-26.142;27.992;2023-05-10T19:35:30;32.30;;;24.60;;
26478;SDS011;14163;-26.142;27.992;2023-05-10T19:37:59;26.63;;;23.57;;
26478;SDS011;14163;-26.142;27.992;2023-05-10T19:40:28;30.07;;;24.93;;
26478;SDS011;14163;-26.142;27.992;2023-05-10T19:42:58;28.37;;;23.33;;
26478;SDS011;14163;-26.142;27.992;2023-05-10T19:45:27;30.17;;;25.13;;
26478;SDS011;14163;-26.142;27.992;2023-05-10T19:47:58;37.30;;;27.47;;
26478;SDS011;14163;-26.142;27.992;2023-05-10T19:50:28;28.87;;;23.53;;
26478;SDS011;14163;-26.142;27.992;2023-05-10T19:52:57;29.57;;;25.03;;
26478;SDS011;14163;-26.142;27.992;2023-05-10T19:55:27;32.53;;;25.20;;
26478;SDS011;14163;-26.142;27.992;2023-05-10T19:57:57;32.67;;;26.40;;
26478;SDS011;14163;-26.142;27.992;2023-05-10T20:00:27;30.43;;;26.13;;
26478;SDS011;14163;-26.142;27.992;2023-05-10T22:06:20;12.57;;;11.30;;
26478;SDS011;14163;-26.142;27.992;2023-05-10T22:08:50;12.03;;;10.53;;
26478;SDS011;14163;-26.142;27.992;2023-05-10T22:11:20;10.83;;;9.80;;
26478;SDS011;14163;-26.142;27.992;2023-05-10T22:13:50;10.87;;;9.07;;
26478;SDS011;14163;-26.142;27.992;2023-05-10T22:16:20;21.17;;;12.73;;
26478;SDS011;14163;-26.142;27.992;2023-05-10T22:18:49;15.80;;;11.70;;
26478;SDS011;14163;-26.142;27.992;2023-05-10T22:21:20;15.07;;;12.60;;
26478;SDS011;14163;-26.142;27.992;2023-05-10T22:23:50;13.37;;;11.93;;
26478;SDS011;14163;-26.142;27.992;2023-05-10T22:26:19;16.30;;;12.00;;
26478;SDS011;14163;-26.142;27.992;2023-05-10T22:28:48;13.17;;;10.90;;
26478;SDS011;14163;-26.142;27.992;2023-05-10T22:31:17;14.20;;;11.50;;
26478;SDS011;14163;-26.142;27.992;2023-05-10T22:33:47;12.50;;;11.10;;
26478;SDS011;14163;-26.142;27.992;2023-05-10T22:36:16;13.97;;;10.93;;
26478;SDS011;14163;-26.142;27.992;2023-05-10T22:38:47;17.20;;;11.87;;
26478;SDS011;14163;-26.142;27.992;2023-05-10T22:41:16;16.50;;;13.37;;
26478;SDS011;14163;-26.142;27.992;2023-05-10T22:43:45;17.50;;;13.80;;
26478;SDS011;14163;-26.142;27.992;2023-05-10T22:46:15;18.30;;;14.43;;
26478;SDS011;14163;-26.142;27.992;2023-05-10T22:48:44;18.47;;;15.87;;
26478;SDS011;14163;-26.142;27.992;2023-05-10T22:51:14;23.10;;;16.93;;
26478;SDS011;14163;-26.142;27.992;2023-05-10T22:53:43;26.67;;;19.53;;
26478;SDS011;14163;-26.142;27.992;2023-05-10T22:56:14;28.63;;;20.43;;
26478;SDS011;14163;-26.142;27.992;2023-05-10T22:58:43;24.97;;;20.20;;
26478;SDS011;14163;-26.142;27.992;2023-05-10T23:01:13;29.10;;;21.30;;
26478;SDS011;14163;-26.142;27.992;2023-05-10T23:03:42;26.93;;;19.80;;
26478;SDS011;14163;-26.142;27.992;2023-05-10T23:06:11;26.07;;;21.73;;
26478;SDS011;14163;-26.142;27.992;2023-05-10T23:08:40;31.50;;;21.77;;
26478;SDS011;14163;-26.142;27.992;2023-05-10T23:11:10;26.00;;;20.90;;
26478;SDS011;14163;-26.142;27.992;2023-05-10T23:13:40;25.77;;;20.50;;
26478;SDS011;14163;-26.142;27.992;2023-05-10T23:16:10;27.97;;;20.30;;